createdAt,value
2023-06-10T00:00:30.185Z,95430.00
2023-06-10T00:01:31.141Z,95430.00
2023-06-10T00:02:30.290Z,95428.00
2023-06-10T00:03:31.289Z,95424.00
2023-06-10T00:04:31.301Z,95426.00
2023-06-10T00:05:31.306Z,95420.00
2023-06-10T00:06:30.271Z,95418.00
2023-06-10T00:07:31.315Z,95416.00
2023-06-10T00:08:30.370Z,95416.00
2023-06-10T00:09:31.410Z,95414.00
2023-06-10T00:10:31.438Z,95420.00
2023-06-10T00:11:31.473Z,95418.00
2023-06-10T00:12:31.576Z,95418.00
2023-06-10T00:13:31.604Z,95420.00
2023-06-10T00:14:31.576Z,95422.00
2023-06-10T00:15:31.648Z,95424.00
2023-06-10T00:16:30.656Z,95424.00
2023-06-10T00:17:31.738Z,95426.00
2023-06-10T00:18:31.711Z,95426.00
2023-06-10T00:19:31.788Z,95424.00
2023-06-10T00:20:31.763Z,95424.00
2023-06-10T00:21:38.574Z,95426.00
2023-06-10T00:22:31.749Z,95426.00
2023-06-10T00:23:31.775Z,95428.00
2023-06-10T00:24:30.773Z,95430.00
2023-06-10T00:25:31.775Z,95430.00
2023-06-10T00:26:31.804Z,95430.00
2023-06-10T00:27:31.813Z,95430.00
2023-06-10T00:28:31.706Z,95434.00
2023-06-10T00:29:31.706Z,95430.00
2023-06-10T00:30:31.747Z,95434.00
2023-06-10T00:31:31.757Z,95434.00
2023-06-10T00:32:31.698Z,95432.00
2023-06-10T00:33:31.760Z,95432.00
2023-06-10T00:34:30.636Z,95436.00
2023-06-10T00:35:31.644Z,95436.00
2023-06-10T00:36:30.617Z,95432.00
2023-06-10T00:37:31.655Z,95434.00
2023-06-10T00:38:30.658Z,95434.00
2023-06-10T00:39:31.690Z,95436.00
2023-06-10T00:40:31.713Z,95436.00
2023-06-10T00:41:31.746Z,95438.00
2023-06-10T00:42:31.775Z,95440.00
2023-06-10T00:43:31.754Z,95440.00
2023-06-10T00:44:31.804Z,95440.00
2023-06-10T00:45:31.871Z,95445.00
2023-06-10T00:46:31.879Z,95442.00
2023-06-10T00:47:31.114Z,95443.00
2023-06-10T00:48:32.029Z,95443.00
2023-06-10T00:49:32.052Z,95442.00
2023-06-10T00:50:32.090Z,95443.00
2023-06-10T00:51:32.089Z,95442.00
2023-06-10T00:52:32.105Z,95442.00
2023-06-10T00:53:31.297Z,95442.00
2023-06-10T00:54:32.216Z,95443.00
2023-06-10T00:55:32.221Z,95443.00
2023-06-10T00:56:32.271Z,95443.00
2023-06-10T00:57:32.266Z,95445.00
2023-06-10T00:58:32.342Z,95445.00
2023-06-10T00:59:32.340Z,95445.00
2023-06-10T01:00:32.449Z,95442.00
2023-06-10T01:01:31.519Z,95442.00
2023-06-10T01:02:32.459Z,95443.00
2023-06-10T01:03:31.483Z,95442.00
2023-06-10T01:04:32.463Z,95442.00
2023-06-10T01:05:31.591Z,95442.00
2023-06-10T01:06:33.176Z,95436.00
2023-06-10T01:07:31.609Z,95440.00
2023-06-10T01:08:32.663Z,95440.00
2023-06-10T01:09:31.723Z,95440.00
2023-06-10T01:10:32.727Z,95440.00
2023-06-10T01:11:31.794Z,95442.00
2023-06-10T01:12:32.820Z,95443.00
2023-06-10T01:13:32.867Z,95445.00
2023-06-10T01:14:32.493Z,95449.00
2023-06-10T01:15:32.920Z,95449.00
2023-06-10T01:16:32.971Z,95449.00
2023-06-10T01:17:33.112Z,95449.00
2023-06-10T01:18:32.979Z,95449.00
2023-06-10T01:19:33.089Z,95449.00
2023-06-10T01:20:33.220Z,95451.00
2023-06-10T01:21:35.138Z,95451.00
2023-06-10T01:22:33.137Z,95453.00
2023-06-10T01:23:33.200Z,95453.00
2023-06-10T01:24:32.196Z,95453.00
2023-06-10T01:25:33.106Z,95449.00
2023-06-10T01:26:32.075Z,95451.00
2023-06-10T01:27:32.055Z,95453.00
2023-06-10T01:28:32.131Z,95451.00
2023-06-10T01:29:33.119Z,95453.00
2023-06-10T01:30:33.084Z,95451.00
2023-06-10T01:31:33.116Z,95453.00
2023-06-10T01:32:32.061Z,95453.00
2023-06-10T01:33:33.042Z,95455.00
2023-06-10T01:34:32.106Z,95453.00
2023-06-10T01:35:33.025Z,95457.00
2023-06-10T01:36:33.071Z,95453.00
2023-06-10T01:37:33.019Z,95455.00
2023-06-10T01:38:33.059Z,95455.00
2023-06-10T01:39:33.023Z,95455.00
2023-06-10T01:40:31.996Z,95455.00
2023-06-10T01:41:32.963Z,95457.00
2023-06-10T01:42:32.945Z,95455.00
2023-06-10T01:43:31.981Z,95453.00
2023-06-10T01:44:31.934Z,95455.00
2023-06-10T01:45:32.949Z,95455.00
2023-06-10T01:46:33.038Z,95455.00
2023-06-10T01:47:33.109Z,95455.00
2023-06-10T01:48:31.913Z,95455.00
2023-06-10T01:49:32.901Z,95457.00
2023-06-10T01:50:32.965Z,95457.00
2023-06-10T01:51:32.985Z,95457.00
2023-06-10T01:52:32.981Z,95453.00
2023-06-10T01:53:33.071Z,95453.00
2023-06-10T01:54:33.047Z,95453.00
2023-06-10T01:55:33.119Z,95455.00
2023-06-10T01:56:32.150Z,95455.00
2023-06-10T01:57:32.222Z,95453.00
2023-06-10T01:58:33.286Z,95455.00
2023-06-10T01:59:33.316Z,95455.00
2023-06-10T02:00:33.387Z,95455.00
2023-06-10T02:01:33.485Z,95455.00
2023-06-10T02:02:33.029Z,95453.00
2023-06-10T02:03:33.563Z,95457.00
2023-06-10T02:04:33.542Z,95455.00
2023-06-10T02:05:33.578Z,95455.00
2023-06-10T02:06:33.576Z,95455.00
2023-06-10T02:07:33.619Z,95453.00
2023-06-10T02:08:34.501Z,95453.00
2023-06-10T02:09:33.696Z,95451.00
2023-06-10T02:10:33.747Z,95451.00
2023-06-10T02:11:33.817Z,95449.00
2023-06-10T02:12:33.849Z,95447.00
2023-06-10T02:13:33.934Z,95445.00
2023-06-10T02:14:33.976Z,95445.00
2023-06-10T02:15:34.000Z,95445.00
2023-06-10T02:16:33.145Z,95447.00
2023-06-10T02:17:33.094Z,95451.00
2023-06-10T02:18:34.134Z,95451.00
2023-06-10T02:19:33.171Z,95453.00
2023-06-10T02:20:34.206Z,95455.00
2023-06-10T02:21:34.248Z,95453.00
2023-06-10T02:22:34.340Z,95453.00
2023-06-10T02:23:34.384Z,95455.00
2023-06-10T02:24:34.412Z,95455.00
2023-06-10T02:25:34.485Z,95453.00
2023-06-10T02:26:34.529Z,95455.00
2023-06-10T02:27:34.655Z,95453.00
2023-06-10T02:28:33.654Z,95449.00
2023-06-10T02:29:34.673Z,95453.00
2023-06-10T02:30:34.693Z,95453.00
2023-06-10T02:31:34.736Z,95449.00
2023-06-10T02:32:34.797Z,95451.00
2023-06-10T02:33:33.856Z,95451.00
2023-06-10T02:34:34.930Z,95451.00
2023-06-10T02:35:34.951Z,95453.00
2023-06-10T02:36:35.007Z,95453.00
2023-06-10T02:37:35.073Z,95453.00
2023-06-10T02:38:35.147Z,95457.00
2023-06-10T02:39:35.193Z,95455.00
2023-06-10T02:40:35.206Z,95457.00
2023-06-10T02:41:35.195Z,95459.00
2023-06-10T02:42:35.252Z,95459.00
2023-06-10T02:43:34.349Z,95457.00
2023-06-10T02:44:35.367Z,95459.00
2023-06-10T02:45:35.487Z,95465.00
2023-06-10T02:46:34.520Z,95467.00
2023-06-10T02:47:35.645Z,95467.00
2023-06-10T02:48:35.620Z,95469.00
2023-06-10T02:49:35.667Z,95473.00
2023-06-10T02:50:34.718Z,95471.00
2023-06-10T02:51:35.750Z,95473.00
2023-06-10T02:52:35.846Z,95473.00
2023-06-10T02:53:35.885Z,95473.00
2023-06-10T02:54:35.951Z,95475.00
2023-06-10T02:55:35.954Z,95473.00
2023-06-10T02:56:36.007Z,95471.00
2023-06-10T02:57:36.114Z,95473.00
2023-06-10T02:58:35.193Z,95475.00
2023-06-10T02:59:36.169Z,95473.00
2023-06-10T03:00:36.228Z,95475.00
2023-06-10T03:01:36.576Z,95473.00
2023-06-10T03:02:36.444Z,95471.00
2023-06-10T03:03:36.452Z,95471.00
2023-06-10T03:04:36.447Z,95471.00
2023-06-10T03:05:36.509Z,95473.00
2023-06-10T03:06:36.561Z,95473.00
2023-06-10T03:07:36.579Z,95469.00
2023-06-10T03:08:36.647Z,95469.00
2023-06-10T03:09:36.706Z,95467.00
2023-06-10T03:10:36.751Z,95467.00
2023-06-10T03:11:36.785Z,95467.00
2023-06-10T03:12:37.574Z,95467.00
2023-06-10T03:13:36.951Z,95467.00
2023-06-10T03:14:37.000Z,95463.00
2023-06-10T03:15:37.137Z,95471.00
2023-06-10T03:16:36.131Z,95469.00
2023-06-10T03:17:37.148Z,95471.00
2023-06-10T03:18:36.264Z,95475.00
2023-06-10T03:19:37.281Z,95477.00
2023-06-10T03:20:37.306Z,95477.00
2023-06-10T03:21:36.401Z,95479.00
2023-06-10T03:22:36.410Z,95481.00
2023-06-10T03:23:37.554Z,95483.00
2023-06-10T03:24:37.504Z,95485.00
2023-06-10T03:25:37.601Z,95485.00
2023-06-10T03:26:37.644Z,95485.00
2023-06-10T03:27:37.733Z,95487.00
2023-06-10T03:28:37.865Z,95487.00
2023-06-10T03:29:37.832Z,95489.00
2023-06-10T03:30:37.902Z,95485.00
2023-06-10T03:31:37.964Z,95487.00
2023-06-10T03:32:37.031Z,95489.00
2023-06-10T03:33:38.019Z,95490.00
2023-06-10T03:34:37.081Z,95489.00
2023-06-10T03:35:38.129Z,95492.00
2023-06-10T03:36:38.170Z,95492.00
2023-06-10T03:37:38.242Z,95492.00
2023-06-10T03:38:37.297Z,95496.00
2023-06-10T03:39:38.356Z,95494.00
2023-06-10T03:40:38.380Z,95494.00
2023-06-10T03:41:38.457Z,95494.00
2023-06-10T03:42:38.568Z,95498.00
2023-06-10T03:43:38.608Z,95496.00
2023-06-10T03:44:37.627Z,95498.00
2023-06-10T03:45:37.705Z,95498.00
2023-06-10T03:46:38.772Z,95498.00
2023-06-10T03:47:37.831Z,95500.00
2023-06-10T03:48:38.873Z,95502.00
2023-06-10T03:49:39.028Z,95504.00
2023-06-10T03:50:39.030Z,95506.00
2023-06-10T03:51:39.098Z,95508.00
2023-06-10T03:52:39.142Z,95510.00
2023-06-10T03:53:39.180Z,95512.00
2023-06-10T03:54:39.263Z,95514.00
2023-06-10T03:55:39.305Z,95516.00
2023-06-10T03:56:39.366Z,95514.00
2023-06-10T03:57:39.438Z,95516.00
2023-06-10T03:58:39.468Z,95514.00
2023-06-10T03:59:39.481Z,95514.00
2023-06-10T04:00:39.634Z,95514.00
2023-06-10T04:01:39.647Z,95512.00
2023-06-10T04:02:39.776Z,95514.00
2023-06-10T04:03:39.796Z,95510.00
2023-06-10T04:04:39.831Z,95510.00
2023-06-10T04:05:38.890Z,95508.00
2023-06-10T04:06:39.938Z,95508.00
2023-06-10T04:07:40.040Z,95512.00
2023-06-10T04:08:40.034Z,95510.00
2023-06-10T04:09:40.202Z,95512.00
2023-06-10T04:10:40.194Z,95512.00
2023-06-10T04:11:39.267Z,95512.00
2023-06-10T04:12:39.246Z,95510.00
2023-06-10T04:13:39.292Z,95512.00
2023-06-10T04:14:39.329Z,95512.00
2023-06-10T04:15:40.402Z,95512.00
2023-06-10T04:16:39.589Z,95512.00
2023-06-10T04:17:39.620Z,95514.00
2023-06-10T04:18:40.627Z,95514.00
2023-06-10T04:19:40.736Z,95514.00
2023-06-10T04:20:40.780Z,95514.00
2023-06-10T04:21:40.869Z,95514.00
2023-06-10T04:22:40.870Z,95518.00
2023-06-10T04:23:41.029Z,95518.00
2023-06-10T04:24:40.984Z,95516.00
2023-06-10T04:25:41.073Z,95520.00
2023-06-10T04:26:41.090Z,95518.00
2023-06-10T04:27:40.090Z,95520.00
2023-06-10T04:28:41.185Z,95518.00
2023-06-10T04:29:40.245Z,95516.00
2023-06-10T04:30:40.293Z,95520.00
2023-06-10T04:31:41.413Z,95520.00
2023-06-10T04:32:41.443Z,95516.00
2023-06-10T04:33:41.496Z,95516.00
2023-06-10T04:34:41.586Z,95514.00
2023-06-10T04:35:41.641Z,95516.00
2023-06-10T04:36:41.661Z,95516.00
2023-06-10T04:37:41.686Z,95514.00
2023-06-10T04:38:40.809Z,95514.00
2023-06-10T04:39:41.842Z,95512.00
2023-06-10T04:40:41.948Z,95512.00
2023-06-10T04:41:42.011Z,95512.00
2023-06-10T04:42:42.026Z,95510.00
2023-06-10T04:43:42.071Z,95512.00
2023-06-10T04:44:41.130Z,95512.00
2023-06-10T04:45:42.170Z,95514.00
2023-06-10T04:46:42.280Z,95512.00
2023-06-10T04:47:42.321Z,95512.00
2023-06-10T04:48:41.375Z,95512.00
2023-06-10T04:49:41.411Z,95512.00
2023-06-10T04:50:42.508Z,95514.00
2023-06-10T04:51:42.609Z,95512.00
2023-06-10T04:52:41.615Z,95514.00
2023-06-10T04:53:42.676Z,95512.00
2023-06-10T04:54:42.718Z,95514.00
2023-06-10T04:55:42.815Z,95514.00
2023-06-10T04:56:42.846Z,95514.00
2023-06-10T04:57:42.984Z,95516.00
2023-06-10T04:58:42.991Z,95518.00
2023-06-10T04:59:42.019Z,95522.00
2023-06-10T05:00:43.182Z,95518.00
2023-06-10T05:01:43.183Z,95526.00
2023-06-10T05:02:43.304Z,95518.00
2023-06-10T05:03:42.339Z,95520.00
2023-06-10T05:04:42.405Z,95518.00
2023-06-10T05:05:43.421Z,95520.00
2023-06-10T05:06:43.602Z,95524.00
2023-06-10T05:07:43.578Z,95522.00
2023-06-10T05:08:42.643Z,95524.00
2023-06-10T05:09:43.650Z,95524.00
2023-06-10T05:10:43.762Z,95524.00
2023-06-10T05:11:43.811Z,95524.00
2023-06-10T05:12:43.849Z,95524.00
2023-06-10T05:13:42.925Z,95522.00
2023-06-10T05:14:43.918Z,95524.00
2023-06-10T05:15:43.994Z,95524.00
2023-06-10T05:16:44.052Z,95524.00
2023-06-10T05:17:44.215Z,95522.00
2023-06-10T05:18:44.167Z,95520.00
2023-06-10T05:19:44.237Z,95518.00
2023-06-10T05:20:44.348Z,95518.00
2023-06-10T05:21:44.364Z,95518.00
2023-06-10T05:22:44.442Z,95518.00
2023-06-10T05:23:43.495Z,95518.00
2023-06-10T05:24:43.522Z,95516.00
2023-06-10T05:25:44.608Z,95518.00
2023-06-10T05:26:44.756Z,95516.00
2023-06-10T05:27:44.695Z,95514.00
2023-06-10T05:28:44.768Z,95518.00
2023-06-10T05:29:44.832Z,95516.00
2023-06-10T05:30:44.894Z,95516.00
2023-06-10T05:31:43.944Z,95512.00
2023-06-10T05:32:44.062Z,95514.00
2023-06-10T05:33:45.059Z,95512.00
2023-06-10T05:34:44.167Z,95510.00
2023-06-10T05:35:45.245Z,95508.00
2023-06-10T05:36:44.227Z,95510.00
2023-06-10T05:37:44.270Z,95510.00
2023-06-10T05:38:45.410Z,95508.00
2023-06-10T05:39:45.400Z,95508.00
2023-06-10T05:40:45.537Z,95508.00
2023-06-10T05:41:44.520Z,95508.00
2023-06-10T05:42:45.606Z,95506.00
2023-06-10T05:43:44.609Z,95506.00
2023-06-10T05:44:45.686Z,95508.00
2023-06-10T05:45:45.789Z,95504.00
2023-06-10T05:46:45.749Z,95504.00
2023-06-10T05:47:45.841Z,95502.00
2023-06-10T05:48:44.851Z,95502.00
2023-06-10T05:49:45.891Z,95500.00
2023-06-10T05:50:46.001Z,95496.00
2023-06-10T05:51:46.010Z,95498.00
2023-06-10T05:52:46.085Z,95498.00
2023-06-10T05:53:46.181Z,95496.00
2023-06-10T05:54:46.193Z,95496.00
2023-06-10T05:55:46.265Z,95496.00
2023-06-10T05:56:45.257Z,95500.00
2023-06-10T05:57:46.323Z,95500.00
2023-06-10T05:58:46.506Z,95500.00
2023-06-10T05:59:46.481Z,95498.00
2023-06-10T06:00:46.612Z,95498.00
2023-06-10T06:01:46.562Z,95496.00
2023-06-10T06:02:47.208Z,95498.00
2023-06-10T06:03:46.797Z,95494.00
2023-06-10T06:04:45.791Z,95494.00
2023-06-10T06:05:46.784Z,95490.00
2023-06-10T06:06:45.827Z,95489.00
2023-06-10T06:07:45.787Z,95492.00
2023-06-10T06:08:46.871Z,95492.00
2023-06-10T06:09:46.950Z,95492.00
2023-06-10T06:10:47.042Z,95492.00
2023-06-10T06:11:47.006Z,95492.00
2023-06-10T06:12:47.081Z,95492.00
2023-06-10T06:13:47.098Z,95494.00
2023-06-10T06:14:47.146Z,95494.00
2023-06-10T06:15:47.275Z,95496.00
2023-06-10T06:16:47.189Z,95494.00
2023-06-10T06:17:46.202Z,95494.00
2023-06-10T06:18:47.213Z,95496.00
2023-06-10T06:19:47.255Z,95496.00
2023-06-10T06:20:46.273Z,95496.00
2023-06-10T06:21:47.325Z,95498.00
2023-06-10T06:22:47.336Z,95498.00
2023-06-10T06:23:47.527Z,95496.00
2023-06-10T06:24:46.558Z,95496.00
2023-06-10T06:25:47.453Z,95496.00
2023-06-10T06:26:47.514Z,95494.00
2023-06-10T06:27:47.524Z,95494.00
2023-06-10T06:28:47.554Z,95498.00
2023-06-10T06:29:47.699Z,95496.00
2023-06-10T06:30:47.671Z,95498.00
2023-06-10T06:31:47.740Z,95498.00
2023-06-10T06:32:47.908Z,95496.00
2023-06-10T06:33:47.795Z,95496.00
2023-06-10T06:34:47.784Z,95494.00
2023-06-10T06:35:47.841Z,95492.00
2023-06-10T06:36:46.886Z,95490.00
2023-06-10T06:37:46.858Z,95489.00
2023-06-10T06:38:47.874Z,95490.00
2023-06-10T06:39:47.943Z,95490.00
2023-06-10T06:40:46.947Z,95490.00
2023-06-10T06:41:46.987Z,95492.00
2023-06-10T06:42:48.038Z,95490.00
2023-06-10T06:43:48.066Z,95490.00
2023-06-10T06:44:48.080Z,95490.00
2023-06-10T06:45:47.090Z,95489.00
2023-06-10T06:46:48.128Z,95489.00
2023-06-10T06:47:47.280Z,95490.00
2023-06-10T06:48:48.382Z,95489.00
2023-06-10T06:49:48.249Z,95489.00
2023-06-10T06:50:48.300Z,95489.00
2023-06-10T06:51:47.331Z,95489.00
2023-06-10T06:52:47.358Z,95492.00
2023-06-10T06:53:47.342Z,95490.00
2023-06-10T06:54:48.351Z,95492.00
2023-06-10T06:55:48.397Z,95494.00
2023-06-10T06:56:48.450Z,95489.00
2023-06-10T06:57:48.489Z,95494.00
2023-06-10T06:58:48.457Z,95494.00
2023-06-10T06:59:48.470Z,95494.00
2023-06-10T07:00:48.525Z,95492.00
2023-06-10T07:01:48.498Z,95496.00
2023-06-10T07:02:48.543Z,95494.00
2023-06-10T07:03:47.555Z,95492.00
2023-06-10T07:04:47.605Z,95494.00
2023-06-10T07:05:48.602Z,95490.00
2023-06-10T07:06:48.634Z,95490.00
2023-06-10T07:07:48.657Z,95489.00
2023-06-10T07:08:47.654Z,95489.00
2023-06-10T07:09:48.706Z,95489.00
2023-06-10T07:10:48.697Z,95487.00
2023-06-10T07:11:47.761Z,95489.00
2023-06-10T07:12:48.708Z,95490.00
2023-06-10T07:13:48.785Z,95490.00
2023-06-10T07:14:48.802Z,95492.00
2023-06-10T07:15:48.831Z,95494.00
2023-06-10T07:16:48.850Z,95494.00
2023-06-10T07:17:48.861Z,95496.00
2023-06-10T07:18:48.867Z,95492.00
2023-06-10T07:19:48.872Z,95496.00
2023-06-10T07:20:47.890Z,95494.00
2023-06-10T07:21:48.925Z,95492.00
2023-06-10T07:22:48.982Z,95490.00
2023-06-10T07:23:48.902Z,95490.00
2023-06-10T07:24:48.895Z,95490.00
2023-06-10T07:25:48.920Z,95489.00
2023-06-10T07:26:47.986Z,95487.00
2023-06-10T07:27:48.966Z,95487.00
2023-06-10T07:28:48.918Z,95485.00
2023-06-10T07:29:48.934Z,95487.00
2023-06-10T07:30:49.026Z,95485.00
2023-06-10T07:31:48.972Z,95487.00
2023-06-10T07:32:49.040Z,95487.00
2023-06-10T07:33:48.977Z,95485.00
2023-06-10T07:34:49.042Z,95485.00
2023-06-10T07:35:49.015Z,95483.00
2023-06-10T07:36:49.038Z,95479.00
2023-06-10T07:37:48.063Z,95477.00
2023-06-10T07:38:48.032Z,95485.00
2023-06-10T07:39:49.037Z,95485.00
2023-06-10T07:40:49.049Z,95485.00
2023-06-10T07:41:48.038Z,95481.00
2023-06-10T07:42:49.005Z,95481.00
2023-06-10T07:43:49.013Z,95481.00
2023-06-10T07:44:49.010Z,95477.00
2023-06-10T07:45:49.032Z,95475.00
2023-06-10T07:46:49.134Z,95475.00
2023-06-10T07:47:49.086Z,95475.00
2023-06-10T07:48:48.006Z,95473.00
2023-06-10T07:49:49.044Z,95473.00
2023-06-10T07:50:49.114Z,95473.00
2023-06-10T07:51:49.106Z,95473.00
2023-06-10T07:52:49.070Z,95471.00
2023-06-10T07:53:49.029Z,95475.00
2023-06-10T07:54:48.023Z,95475.00
2023-06-10T07:55:48.060Z,95473.00
2023-06-10T07:56:49.000Z,95473.00
2023-06-10T07:57:49.028Z,95473.00
2023-06-10T07:58:49.009Z,95471.00
2023-06-10T07:59:47.995Z,95473.00
2023-06-10T08:00:49.018Z,95471.00
2023-06-10T08:01:49.047Z,95471.00
2023-06-10T08:02:49.132Z,95473.00
2023-06-10T08:03:49.238Z,95473.00
2023-06-10T08:04:49.130Z,95473.00
2023-06-10T08:05:48.056Z,95471.00
2023-06-10T08:06:49.028Z,95473.00
2023-06-10T08:07:47.977Z,95471.00
2023-06-10T08:08:49.035Z,95473.00
2023-06-10T08:09:49.083Z,95473.00
2023-06-10T08:10:49.019Z,95471.00
2023-06-10T08:11:48.037Z,95471.00
2023-06-10T08:12:48.020Z,95473.00
2023-06-10T08:13:48.993Z,95467.00
2023-06-10T08:14:49.003Z,95469.00
2023-06-10T08:15:49.018Z,95467.00
2023-06-10T08:16:49.057Z,95465.00
2023-06-10T08:17:49.008Z,95465.00
2023-06-10T08:18:48.001Z,95465.00
2023-06-10T08:19:49.045Z,95465.00
2023-06-10T08:20:48.034Z,95463.00
2023-06-10T08:21:48.989Z,95463.00
2023-06-10T08:22:48.990Z,95465.00
2023-06-10T08:23:49.118Z,95469.00
2023-06-10T08:24:49.592Z,95461.00
2023-06-10T08:25:48.036Z,95467.00
2023-06-10T08:26:49.061Z,95465.00
2023-06-10T08:27:49.048Z,95465.00
2023-06-10T08:28:49.080Z,95465.00
2023-06-10T08:29:49.025Z,95465.00
2023-06-10T08:30:49.032Z,95463.00
2023-06-10T08:31:49.096Z,95461.00
2023-06-10T08:32:48.123Z,95461.00
2023-06-10T08:33:48.076Z,95459.00
2023-06-10T08:34:48.100Z,95457.00
2023-06-10T08:35:49.103Z,95455.00
2023-06-10T08:36:48.138Z,95455.00
2023-06-10T08:37:49.119Z,95455.00
2023-06-10T08:38:48.137Z,95455.00
2023-06-10T08:39:49.124Z,95453.00
2023-06-10T08:40:49.116Z,95455.00
2023-06-10T08:41:49.152Z,95455.00
2023-06-10T08:42:49.161Z,95453.00
2023-06-10T08:43:48.147Z,95451.00
2023-06-10T08:44:48.167Z,95451.00
2023-06-10T08:45:48.195Z,95451.00
2023-06-10T08:46:49.240Z,95453.00
2023-06-10T08:47:49.297Z,95453.00
2023-06-10T08:48:48.309Z,95451.00
2023-06-10T08:49:48.303Z,95451.00
2023-06-10T08:50:49.321Z,95451.00
2023-06-10T08:51:49.331Z,95449.00
2023-06-10T08:52:49.337Z,95451.00
2023-06-10T08:53:48.435Z,95449.00
2023-06-10T08:54:49.393Z,95451.00
2023-06-10T08:55:49.382Z,95449.00
2023-06-10T08:56:49.421Z,95447.00
2023-06-10T08:57:49.407Z,95445.00
2023-06-10T08:58:49.473Z,95447.00
2023-06-10T08:59:49.438Z,95442.00
2023-06-10T09:00:48.427Z,95443.00
2023-06-10T09:01:49.508Z,95442.00
2023-06-10T09:02:49.476Z,95440.00
2023-06-10T09:03:48.659Z,95438.00
2023-06-10T09:04:48.515Z,95438.00
2023-06-10T09:05:49.688Z,95438.00
2023-06-10T09:06:48.604Z,95434.00
2023-06-10T09:07:49.646Z,95438.00
2023-06-10T09:08:49.647Z,95438.00
2023-06-10T09:09:49.651Z,95434.00
2023-06-10T09:10:48.626Z,95432.00
2023-06-10T09:11:49.617Z,95432.00
2023-06-10T09:12:48.602Z,95428.00
2023-06-10T09:13:49.600Z,95428.00
2023-06-10T09:14:48.579Z,95428.00
2023-06-10T09:15:49.667Z,95426.00
2023-06-10T09:16:49.613Z,95424.00
2023-06-10T09:17:48.689Z,95426.00
2023-06-10T09:18:49.565Z,95428.00
2023-06-10T09:19:49.612Z,95424.00
2023-06-10T09:20:49.609Z,95424.00
2023-06-10T09:21:48.569Z,95426.00
2023-06-10T09:22:49.593Z,95426.00
2023-06-10T09:23:49.666Z,95426.00
2023-06-10T09:24:49.626Z,95424.00
2023-06-10T09:25:49.651Z,95422.00
2023-06-10T09:26:49.681Z,95420.00
2023-06-10T09:27:49.617Z,95418.00
2023-06-10T09:28:49.655Z,95420.00
2023-06-10T09:29:49.767Z,95418.00
2023-06-10T09:30:49.645Z,95418.00
2023-06-10T09:31:49.648Z,95418.00
2023-06-10T09:32:49.696Z,95416.00
2023-06-10T09:33:48.670Z,95412.00
2023-06-10T09:34:48.641Z,95414.00
2023-06-10T09:35:49.665Z,95410.00
2023-06-10T09:36:49.645Z,95412.00
2023-06-10T09:37:49.650Z,95414.00
2023-06-10T09:38:49.704Z,95412.00
2023-06-10T09:39:49.671Z,95412.00
2023-06-10T09:40:49.673Z,95412.00
2023-06-10T09:41:49.792Z,95412.00
2023-06-10T09:42:49.710Z,95410.00
2023-06-10T09:43:49.689Z,95412.00
2023-06-10T09:44:48.709Z,95412.00
2023-06-10T09:45:49.759Z,95412.00
2023-06-10T09:46:49.768Z,95410.00
2023-06-10T09:47:49.790Z,95410.00
2023-06-10T09:48:49.780Z,95410.00
2023-06-10T09:49:48.714Z,95408.00
2023-06-10T09:50:49.804Z,95406.00
2023-06-10T09:51:49.875Z,95396.00
2023-06-10T09:52:49.773Z,95406.00
2023-06-10T09:53:49.759Z,95396.00
2023-06-10T09:54:49.809Z,95404.00
2023-06-10T09:55:49.789Z,95396.00
2023-06-10T09:56:49.814Z,95404.00
2023-06-10T09:57:49.950Z,95408.00
2023-06-10T09:58:48.918Z,95404.00
2023-06-10T09:59:49.941Z,95392.00
2023-06-10T10:00:49.969Z,95404.00
2023-06-10T10:01:50.004Z,95396.00
2023-06-10T10:02:50.070Z,95396.00
2023-06-10T10:03:50.105Z,95394.00
2023-06-10T10:04:49.179Z,95404.00
2023-06-10T10:05:50.200Z,95396.00
2023-06-10T10:06:50.189Z,95396.00
2023-06-10T10:07:50.262Z,95392.00
2023-06-10T10:08:50.337Z,95392.00
2023-06-10T10:09:50.303Z,95392.00
2023-06-10T10:10:50.344Z,95390.00
2023-06-10T10:11:50.581Z,95390.00
2023-06-10T10:12:50.455Z,95389.00
2023-06-10T10:13:50.496Z,95392.00
2023-06-10T10:14:50.527Z,95390.00
2023-06-10T10:15:49.604Z,95390.00
2023-06-10T10:16:49.693Z,95387.00
2023-06-10T10:17:50.702Z,95389.00
2023-06-10T10:18:50.698Z,95390.00
2023-06-10T10:19:50.732Z,95392.00
2023-06-10T10:20:50.766Z,95392.00
2023-06-10T10:21:49.852Z,95390.00
2023-06-10T10:22:50.861Z,95389.00
2023-06-10T10:23:50.977Z,95390.00
2023-06-10T10:24:51.031Z,95387.00
2023-06-10T10:25:51.079Z,95387.00
2023-06-10T10:26:51.121Z,95389.00
2023-06-10T10:27:51.170Z,95387.00
2023-06-10T10:28:50.206Z,95387.00
2023-06-10T10:29:50.294Z,95383.00
2023-06-10T10:30:51.344Z,95381.00
2023-06-10T10:31:51.361Z,95379.00
2023-06-10T10:32:50.521Z,95377.00
2023-06-10T10:33:50.493Z,95381.00
2023-06-10T10:34:51.505Z,95377.00
2023-06-10T10:35:51.491Z,95377.00
2023-06-10T10:36:51.551Z,95375.00
2023-06-10T10:37:51.658Z,95379.00
2023-06-10T10:38:52.996Z,95375.00
2023-06-10T10:39:51.829Z,95375.00
2023-06-10T10:40:51.869Z,95377.00
2023-06-10T10:41:52.037Z,95375.00
2023-06-10T10:42:50.960Z,95379.00
2023-06-10T10:43:52.118Z,95375.00
2023-06-10T10:44:51.035Z,95377.00
2023-06-10T10:45:52.064Z,95371.00
2023-06-10T10:46:52.212Z,95379.00
2023-06-10T10:47:52.272Z,95375.00
2023-06-10T10:48:52.228Z,95369.00
2023-06-10T10:49:52.304Z,95375.00
2023-06-10T10:50:52.365Z,95371.00
2023-06-10T10:51:52.342Z,95369.00
2023-06-10T10:52:52.386Z,95373.00
2023-06-10T10:53:52.483Z,95367.00
2023-06-10T10:54:52.475Z,95367.00
2023-06-10T10:55:51.602Z,95363.00
2023-06-10T10:56:52.631Z,95369.00
2023-06-10T10:57:52.687Z,95369.00
2023-06-10T10:58:51.738Z,95369.00
2023-06-10T10:59:52.903Z,95365.00
2023-06-10T11:00:52.909Z,95365.00
2023-06-10T11:01:52.958Z,95361.00
2023-06-10T11:02:52.244Z,95367.00
2023-06-10T11:03:53.108Z,95373.00
2023-06-10T11:04:52.217Z,95369.00
2023-06-10T11:05:53.123Z,95367.00
2023-06-10T11:06:53.226Z,95367.00
2023-06-10T11:07:52.266Z,95369.00
2023-06-10T11:08:53.285Z,95367.00
2023-06-10T11:09:53.360Z,95371.00
2023-06-10T11:10:53.398Z,95369.00
2023-06-10T11:11:53.456Z,95367.00
2023-06-10T11:12:53.528Z,95373.00
2023-06-10T11:13:52.574Z,95377.00
2023-06-10T11:14:53.611Z,95371.00
2023-06-10T11:15:53.700Z,95371.00
2023-06-10T11:16:53.788Z,95371.00
2023-06-10T11:17:53.842Z,95371.00
2023-06-10T11:18:53.852Z,95369.00
2023-06-10T11:19:53.981Z,95369.00
2023-06-10T11:20:53.048Z,95367.00
2023-06-10T11:21:54.263Z,95367.00
2023-06-10T11:22:54.155Z,95371.00
2023-06-10T11:23:54.230Z,95369.00
2023-06-10T11:24:54.410Z,95371.00
2023-06-10T11:25:53.345Z,95371.00
2023-06-10T11:26:54.412Z,95371.00
2023-06-10T11:27:54.528Z,95371.00
2023-06-10T11:28:54.610Z,95373.00
2023-06-10T11:29:54.581Z,95371.00
2023-06-10T11:30:54.626Z,95373.00
2023-06-10T11:31:54.779Z,95373.00
2023-06-10T11:32:54.028Z,95369.00
2023-06-10T11:33:54.968Z,95367.00
2023-06-10T11:34:54.860Z,95367.00
2023-06-10T11:35:54.959Z,95367.00
2023-06-10T11:36:55.034Z,95365.00
2023-06-10T11:37:55.175Z,95361.00
2023-06-10T11:38:55.119Z,95361.00
2023-06-10T11:39:55.212Z,95363.00
2023-06-10T11:40:54.278Z,95355.00
2023-06-10T11:41:54.362Z,95357.00
2023-06-10T11:42:55.439Z,95357.00
2023-06-10T11:43:55.443Z,95353.00
2023-06-10T11:44:55.529Z,95359.00